PGT809M LTAI-LTFJ
Flight info
| Callsign | PGT809M |
|---|---|
| Flight time | 0h 48m |
| Altitude | 34000 |
| Route | EKSEN UL610 ETAMP |
| Aircraft | A20N/M-SDE2E3FGHIRWXY/LB1 |
Departure
| Time | 2026-05-04 09:40 |
|---|---|
| Airport | Antalya International Airport (LTAI) |
Arrival
| Time | 2026-05-04 10:28 |
|---|---|
| Airport | Istanbul Sabiha Gökçen International Airport (LTFJ) |
| Time | Latitude | Longitude | Altitude | Speed | Heading |
|---|---|---|---|---|---|
| 2026-05-04 09:06 | 36.91137 | 30.80057 | 174 ft | 0 kts | 97° |
| 2026-05-04 09:25 | 36.91128 | 30.79985 | 173 ft | 2 kts | 19° |
| 2026-05-04 09:25 | 36.91121 | 30.79983 | 173 ft | 1 kts | 0° |
| 2026-05-04 09:26 | 36.91117 | 30.79983 | 173 ft | 0 kts | 6° |
| 2026-05-04 09:27 | 36.91119 | 30.79983 | 173 ft | 0 kts | 5° |
| 2026-05-04 09:28 | 36.91139 | 30.79985 | 173 ft | 5 kts | 5° |
| 2026-05-04 09:28 | 36.91175 | 30.79971 | 173 ft | 6 kts | 318° |
| 2026-05-04 09:28 | 36.91192 | 30.79907 | 172 ft | 9 kts | 278° |
| 2026-05-04 09:28 | 36.91202 | 30.79818 | 171 ft | 10 kts | 277° |
| 2026-05-04 09:29 | 36.91213 | 30.79723 | 171 ft | 11 kts | 277° |
| 2026-05-04 09:29 | 36.91208 | 30.79666 | 171 ft | 5 kts | 239° |
| 2026-05-04 09:29 | 36.91177 | 30.79639 | 171 ft | 5 kts | 195° |
| 2026-05-04 09:29 | 36.91128 | 30.79631 | 172 ft | 7 kts | 187° |
| 2026-05-04 09:30 | 36.91072 | 30.79622 | 172 ft | 8 kts | 186° |
| 2026-05-04 09:30 | 36.91005 | 30.79613 | 173 ft | 10 kts | 186° |
| 2026-05-04 09:30 | 36.90927 | 30.79603 | 173 ft | 11 kts | 186° |
| 2026-05-04 09:30 | 36.90843 | 30.79594 | 174 ft | 12 kts | 186° |
| 2026-05-04 09:31 | 36.90757 | 30.79581 | 175 ft | 12 kts | 186° |
| 2026-05-04 09:31 | 36.90667 | 30.79568 | 175 ft | 13 kts | 187° |
| 2026-05-04 09:31 | 36.90573 | 30.79556 | 176 ft | 14 kts | 187° |
| 2026-05-04 09:31 | 36.90482 | 30.79542 | 176 ft | 10 kts | 181° |
| 2026-05-04 09:32 | 36.90427 | 30.79570 | 177 ft | 9 kts | 128° |
| 2026-05-04 09:32 | 36.90411 | 30.79659 | 176 ft | 11 kts | 97° |
| 2026-05-04 09:34 | 36.90324 | 30.80656 | 178 ft | 19 kts | 96° |
| 2026-05-04 09:34 | 36.90314 | 30.80759 | 177 ft | 9 kts | 110° |
| 2026-05-04 09:34 | 36.90249 | 30.80783 | 177 ft | 11 kts | 187° |
| 2026-05-04 09:34 | 36.90162 | 30.80769 | 176 ft | 13 kts | 186° |
| 2026-05-04 09:35 | 36.90056 | 30.80755 | 175 ft | 17 kts | 186° |
| 2026-05-04 09:35 | 36.89925 | 30.80738 | 175 ft | 20 kts | 186° |
| 2026-05-04 09:35 | 36.89771 | 30.80715 | 174 ft | 23 kts | 188° |
| 2026-05-04 09:35 | 36.89599 | 30.80692 | 174 ft | 25 kts | 186° |
| 2026-05-04 09:37 | 36.88511 | 30.80542 | 168 ft | 21 kts | 186° |
| 2026-05-04 09:37 | 36.88365 | 30.80522 | 166 ft | 21 kts | 186° |
| 2026-05-04 09:38 | 36.88222 | 30.80503 | 164 ft | 19 kts | 186° |
| 2026-05-04 09:38 | 36.88158 | 30.80509 | 163 ft | 7 kts | 130° |
| 2026-05-04 09:38 | 36.88143 | 30.80584 | 163 ft | 10 kts | 96° |
| 2026-05-04 09:38 | 36.88136 | 30.80688 | 162 ft | 13 kts | 91° |
| 2026-05-04 09:39 | 36.88200 | 30.80740 | 162 ft | 12 kts | 4° |
| 2026-05-04 09:39 | 36.88328 | 30.80753 | 164 ft | 41 kts | 1° |
| 2026-05-04 09:39 | 36.88856 | 30.80822 | 171 ft | 108 kts | 6° |
| 2026-05-04 09:39 | 36.89801 | 30.80965 | 219 ft | 158 kts | 1° |
| 2026-05-04 09:40 | 36.90882 | 30.81150 | 811 ft | 160 kts | 5° |
| 2026-05-04 09:40 | 36.91956 | 30.81563 | 1505 ft | 165 kts | 17° |
| 2026-05-04 09:40 | 36.92988 | 30.82143 | 2161 ft | 164 kts | 17° |
| 2026-05-04 09:40 | 36.94042 | 30.82654 | 2764 ft | 165 kts | 15° |
| 2026-05-04 09:41 | 36.95157 | 30.83173 | 3199 ft | 179 kts | 16° |
| 2026-05-04 09:42 | 37.06109 | 30.82935 | 7473 ft | 259 kts | 352° |
| 2026-05-04 09:43 | 37.07895 | 30.82570 | 8297 ft | 263 kts | 352° |
| 2026-05-04 09:43 | 37.09706 | 30.82212 | 9131 ft | 266 kts | 352° |
| 2026-05-04 09:43 | 37.11536 | 30.81856 | 9976 ft | 269 kts | 352° |
| 2026-05-04 09:43 | 37.13404 | 30.81499 | 10671 ft | 277 kts | 352° |
| 2026-05-04 09:44 | 37.15355 | 30.81128 | 11166 ft | 291 kts | 352° |
| 2026-05-04 09:44 | 37.17412 | 30.80737 | 11562 ft | 308 kts | 352° |
| 2026-05-04 09:44 | 37.19588 | 30.80323 | 11948 ft | 324 kts | 352° |
| 2026-05-04 09:46 | 37.35783 | 30.77252 | 16772 ft | 349 kts | 351° |
| 2026-05-04 09:46 | 37.38187 | 30.76794 | 17408 ft | 352 kts | 351° |
| 2026-05-04 09:46 | 37.40611 | 30.76332 | 18016 ft | 355 kts | 351° |
| 2026-05-04 09:47 | 37.43056 | 30.75867 | 18626 ft | 358 kts | 351° |
| 2026-05-04 09:47 | 37.45523 | 30.75397 | 19242 ft | 360 kts | 351° |
| 2026-05-04 09:49 | 37.63248 | 30.72012 | 23245 ft | 377 kts | 351° |
| 2026-05-04 09:49 | 37.65846 | 30.71514 | 23731 ft | 380 kts | 351° |
| 2026-05-04 09:49 | 37.68466 | 30.71009 | 24218 ft | 382 kts | 351° |
| 2026-05-04 09:51 | 37.84724 | 30.67879 | 26452 ft | 402 kts | 352° |
| 2026-05-04 09:51 | 37.87472 | 30.67174 | 26809 ft | 405 kts | 347° |
| 2026-05-04 09:51 | 37.90190 | 30.66196 | 27165 ft | 408 kts | 343° |
| 2026-05-04 09:51 | 37.92861 | 30.64947 | 27495 ft | 411 kts | 340° |
| 2026-05-04 09:52 | 37.95504 | 30.63537 | 27820 ft | 414 kts | 340° |
| 2026-05-04 09:52 | 37.98153 | 30.62091 | 28123 ft | 417 kts | 339° |
| 2026-05-04 09:52 | 38.00820 | 30.60631 | 28409 ft | 419 kts | 340° |
| 2026-05-04 09:52 | 38.03501 | 30.59160 | 28686 ft | 422 kts | 340° |
| 2026-05-04 09:53 | 38.06199 | 30.57678 | 28960 ft | 424 kts | 340° |
| 2026-05-04 09:53 | 38.08907 | 30.56191 | 29229 ft | 426 kts | 340° |
| 2026-05-04 09:53 | 38.11630 | 30.54697 | 29598 ft | 425 kts | 340° |
| 2026-05-04 09:53 | 38.14337 | 30.53205 | 30010 ft | 424 kts | 340° |
| 2026-05-04 09:54 | 38.17033 | 30.51720 | 30395 ft | 423 kts | 340° |
| 2026-05-04 09:54 | 38.19727 | 30.50239 | 30748 ft | 422 kts | 341° |
| 2026-05-04 09:54 | 38.22416 | 30.48762 | 31072 ft | 421 kts | 340° |
| 2026-05-04 09:54 | 38.25106 | 30.47286 | 31368 ft | 421 kts | 340° |
| 2026-05-04 09:55 | 38.27793 | 30.45812 | 31643 ft | 422 kts | 340° |
| 2026-05-04 09:55 | 38.30484 | 30.44332 | 31901 ft | 422 kts | 339° |
| 2026-05-04 09:55 | 38.33177 | 30.42847 | 32168 ft | 423 kts | 339° |
| 2026-05-04 09:55 | 38.35871 | 30.41358 | 32374 ft | 423 kts | 339° |
| 2026-05-04 09:56 | 38.38572 | 30.39864 | 32548 ft | 425 kts | 339° |
| 2026-05-04 09:56 | 38.41282 | 30.38364 | 32712 ft | 426 kts | 339° |
| 2026-05-04 09:56 | 38.43994 | 30.36860 | 32869 ft | 427 kts | 338° |
| 2026-05-04 09:56 | 38.46718 | 30.35348 | 33025 ft | 428 kts | 338° |
| 2026-05-04 09:57 | 38.49446 | 30.33833 | 33169 ft | 429 kts | 338° |
| 2026-05-04 09:57 | 38.52183 | 30.32314 | 33323 ft | 430 kts | 338° |
| 2026-05-04 09:57 | 38.54929 | 30.30790 | 33463 ft | 432 kts | 337° |
| 2026-05-04 09:57 | 38.57690 | 30.29258 | 33573 ft | 434 kts | 337° |
| 2026-05-04 09:58 | 38.60459 | 30.27720 | 33702 ft | 435 kts | 337° |
| 2026-05-04 09:58 | 38.63234 | 30.26181 | 33845 ft | 436 kts | 337° |
| 2026-05-04 09:58 | 38.66015 | 30.24639 | 33913 ft | 437 kts | 337° |
| 2026-05-04 10:00 | 38.88339 | 30.12168 | 33918 ft | 438 kts | 337° |
| 2026-05-04 10:04 | 39.27311 | 29.90172 | 31575 ft | 438 kts | 341° |
| 2026-05-04 10:04 | 39.30103 | 29.88589 | 30806 ft | 437 kts | 341° |
| 2026-05-04 10:04 | 39.32879 | 29.87016 | 29943 ft | 437 kts | 341° |
| 2026-05-04 10:04 | 39.35658 | 29.85449 | 28970 ft | 439 kts | 341° |
| 2026-05-04 10:05 | 39.38444 | 29.83879 | 28067 ft | 438 kts | 340° |
| 2026-05-04 10:05 | 39.41189 | 29.82303 | 27681 ft | 426 kts | 340° |
| 2026-05-04 10:05 | 39.43869 | 29.80748 | 27039 ft | 422 kts | 340° |
| 2026-05-04 10:05 | 39.46525 | 29.79203 | 26379 ft | 418 kts | 339° |
| 2026-05-04 10:06 | 39.49154 | 29.77672 | 25726 ft | 414 kts | 339° |
| 2026-05-04 10:06 | 39.51762 | 29.76151 | 25112 ft | 409 kts | 339° |
| 2026-05-04 10:06 | 39.54330 | 29.74648 | 24842 ft | 401 kts | 339° |
| 2026-05-04 10:08 | 39.69460 | 29.65779 | 23307 ft | 394 kts | 338° |
| 2026-05-04 10:08 | 39.71944 | 29.64316 | 22996 ft | 392 kts | 338° |
| 2026-05-04 10:08 | 39.74418 | 29.62860 | 22438 ft | 391 kts | 338° |
| 2026-05-04 10:08 | 39.76882 | 29.61408 | 21818 ft | 389 kts | 338° |
| 2026-05-04 10:09 | 39.79333 | 29.59963 | 21198 ft | 387 kts | 339° |
| 2026-05-04 10:09 | 39.81773 | 29.58525 | 20575 ft | 385 kts | 339° |
| 2026-05-04 10:09 | 39.84198 | 29.57095 | 19956 ft | 383 kts | 339° |
| 2026-05-04 10:09 | 39.86595 | 29.55679 | 19570 ft | 374 kts | 338° |
| 2026-05-04 10:10 | 39.88932 | 29.54296 | 19218 ft | 365 kts | 339° |
| 2026-05-04 10:10 | 39.91227 | 29.52938 | 18706 ft | 361 kts | 339° |
| 2026-05-04 10:10 | 39.93495 | 29.51597 | 18170 ft | 358 kts | 339° |
| 2026-05-04 10:10 | 39.95746 | 29.50265 | 17652 ft | 354 kts | 339° |
| 2026-05-04 10:11 | 39.97968 | 29.48948 | 17144 ft | 350 kts | 339° |
| 2026-05-04 10:11 | 40.00170 | 29.47643 | 16659 ft | 346 kts | 339° |
| 2026-05-04 10:11 | 40.02348 | 29.46351 | 16137 ft | 342 kts | 339° |
| 2026-05-04 10:11 | 40.04497 | 29.45075 | 15643 ft | 338 kts | 339° |
| 2026-05-04 10:12 | 40.06622 | 29.43813 | 15146 ft | 334 kts | 339° |
| 2026-05-04 10:12 | 40.08717 | 29.42568 | 14626 ft | 330 kts | 339° |
| 2026-05-04 10:12 | 40.10796 | 29.41331 | 14106 ft | 327 kts | 340° |
| 2026-05-04 10:12 | 40.12849 | 29.40109 | 13634 ft | 323 kts | 340° |
| 2026-05-04 10:13 | 40.14882 | 29.38901 | 13129 ft | 320 kts | 340° |
| 2026-05-04 10:13 | 40.16896 | 29.37704 | 12667 ft | 316 kts | 339° |
| 2026-05-04 10:13 | 40.18893 | 29.36513 | 12368 ft | 316 kts | 339° |
| 2026-05-04 10:13 | 40.20888 | 29.35322 | 12096 ft | 315 kts | 339° |
| 2026-05-04 10:14 | 40.22880 | 29.34134 | 11820 ft | 314 kts | 338° |
| 2026-05-04 10:14 | 40.24864 | 29.32948 | 11538 ft | 313 kts | 339° |
| 2026-05-04 10:16 | 40.38573 | 29.24733 | 9598 ft | 302 kts | 338° |
| 2026-05-04 10:16 | 40.40450 | 29.23604 | 9324 ft | 293 kts | 338° |
| 2026-05-04 10:16 | 40.42273 | 29.22506 | 9042 ft | 285 kts | 338° |
| 2026-05-04 10:16 | 40.44050 | 29.21437 | 8766 ft | 277 kts | 338° |
| 2026-05-04 10:17 | 40.45776 | 29.20398 | 8491 ft | 270 kts | 338° |
| 2026-05-04 10:17 | 40.47463 | 29.19383 | 8207 ft | 264 kts | 337° |
| 2026-05-04 10:19 | 40.58489 | 29.12733 | 6228 ft | 244 kts | 337° |
| 2026-05-04 10:19 | 40.60028 | 29.11801 | 5941 ft | 243 kts | 337° |
| 2026-05-04 10:19 | 40.61561 | 29.10872 | 5660 ft | 243 kts | 337° |
| 2026-05-04 10:19 | 40.63100 | 29.09940 | 5376 ft | 242 kts | 337° |
| 2026-05-04 10:20 | 40.64628 | 29.09014 | 5097 ft | 242 kts | 337° |
| 2026-05-04 10:20 | 40.66154 | 29.08090 | 4817 ft | 242 kts | 337° |
| 2026-05-04 10:20 | 40.67677 | 29.07167 | 4537 ft | 240 kts | 337° |
| 2026-05-04 10:20 | 40.69193 | 29.06248 | 4259 ft | 239 kts | 337° |
| 2026-05-04 10:21 | 40.70707 | 29.05328 | 3977 ft | 238 kts | 337° |
| 2026-05-04 10:21 | 40.72210 | 29.04416 | 3692 ft | 237 kts | 337° |
| 2026-05-04 10:21 | 40.73694 | 29.03515 | 3414 ft | 233 kts | 336° |
| 2026-05-04 10:21 | 40.75146 | 29.02637 | 3195 ft | 226 kts | 338° |
| 2026-05-04 10:22 | 40.77910 | 29.03242 | 2983 ft | 210 kts | 45° |
| 2026-05-04 10:22 | 40.78724 | 29.04864 | 2991 ft | 212 kts | 52° |
| 2026-05-04 10:22 | 40.79511 | 29.06458 | 2992 ft | 205 kts | 53° |
| 2026-05-04 10:23 | 40.80241 | 29.08077 | 2979 ft | 206 kts | 54° |
| 2026-05-04 10:23 | 40.80912 | 29.09697 | 2968 ft | 196 kts | 56° |
| 2026-05-04 10:25 | 40.84447 | 29.19280 | 2075 ft | 133 kts | 54° |
| 2026-05-04 10:25 | 40.84851 | 29.20375 | 1914 ft | 132 kts | 55° |
| 2026-05-04 10:25 | 40.85254 | 29.21472 | 1746 ft | 132 kts | 56° |
| 2026-05-04 10:25 | 40.85653 | 29.22565 | 1567 ft | 132 kts | 54° |
| 2026-05-04 10:26 | 40.86052 | 29.23650 | 1393 ft | 131 kts | 56° |
| 2026-05-04 10:26 | 40.86454 | 29.24747 | 1211 ft | 131 kts | 56° |
| 2026-05-04 10:26 | 40.86851 | 29.25829 | 1035 ft | 131 kts | 56° |
| 2026-05-04 10:26 | 40.87249 | 29.26911 | 852 ft | 131 kts | 58° |
| 2026-05-04 10:27 | 40.87637 | 29.27994 | 677 ft | 130 kts | 54° |
| 2026-05-04 10:27 | 40.88045 | 29.29060 | 491 ft | 131 kts | 56° |
| 2026-05-04 10:27 | 40.88445 | 29.30131 | 350 ft | 129 kts | 58° |
| 2026-05-04 10:27 | 40.88815 | 29.31170 | 294 ft | 112 kts | 61° |
| 2026-05-04 10:28 | 40.89092 | 29.31885 | 299 ft | 62 kts | 69° |
| 2026-05-04 10:28 | 40.89221 | 29.32218 | 299 ft | 29 kts | 56° |
| 2026-05-04 10:28 | 40.89310 | 29.32368 | 299 ft | 14 kts | 39° |
| 2026-05-04 10:28 | 40.89387 | 29.32436 | 301 ft | 12 kts | 32° |
| 2026-05-04 10:29 | 40.89456 | 29.32493 | 303 ft | 10 kts | 17° |
| 2026-05-04 10:29 | 40.89495 | 29.32448 | 304 ft | 7 kts | 260° |
| 2026-05-04 10:29 | 40.89499 | 29.32379 | 304 ft | 8 kts | 314° |
| 2026-05-04 10:29 | 40.89555 | 29.32346 | 304 ft | 9 kts | 351° |
| 2026-05-04 10:30 | 40.89618 | 29.32328 | 305 ft | 8 kts | 336° |
| 2026-05-04 10:30 | 40.89675 | 29.32292 | 307 ft | 10 kts | 334° |
| 2026-05-04 10:30 | 40.89745 | 29.32247 | 309 ft | 12 kts | 334° |
| 2026-05-04 10:30 | 40.89828 | 29.32193 | 312 ft | 14 kts | 334° |
| 2026-05-04 10:31 | 40.89915 | 29.32138 | 316 ft | 12 kts | 335° |
| 2026-05-04 10:31 | 40.89989 | 29.32092 | 318 ft | 10 kts | 334° |
| 2026-05-04 10:32 | 40.90253 | 29.32491 | 316 ft | 10 kts | 62° |
| 2026-05-04 10:33 | 40.90291 | 29.32574 | 314 ft | 11 kts | 36° |
| 2026-05-04 10:33 | 40.90370 | 29.32554 | 312 ft | 13 kts | 334° |
| 2026-05-04 10:33 | 40.90464 | 29.32495 | 311 ft | 15 kts | 335° |
| 2026-05-04 10:33 | 40.90558 | 29.32435 | 315 ft | 12 kts | 334° |
| 2026-05-04 10:34 | 40.90608 | 29.32365 | 319 ft | 9 kts | 297° |
| 2026-05-04 10:34 | 40.90655 | 29.32317 | 321 ft | 8 kts | 333° |
| 2026-05-04 10:34 | 40.90710 | 29.32280 | 321 ft | 9 kts | 329° |
| 2026-05-04 10:34 | 40.90731 | 29.32206 | 321 ft | 9 kts | 250° |
| 2026-05-04 10:35 | 40.90702 | 29.32125 | 321 ft | 10 kts | 241° |
| 2026-05-04 10:35 | 40.90670 | 29.32037 | 321 ft | 8 kts | 244° |
| 2026-05-04 10:35 | 40.90644 | 29.32000 | 321 ft | 5 kts | 179° |
| 2026-05-04 10:35 | 40.90600 | 29.32023 | 321 ft | 8 kts | 154° |
| 2026-05-04 10:36 | 40.90582 | 29.32034 | 321 ft | 1 kts | 154° |
| 2026-05-04 10:36 | 40.90579 | 29.32036 | 321 ft | 0 kts | 154° |